Flight Track Log - Related Links

Times and Time Zones

All times are in EDT time to prevent confusion due to time zone crossing. See the N271LD flight status page for this flight to view local times or setup timezone preferences in your user account.

Time Position Orientation Groundspeed Altitude Reporting Facility
EDT Latitude Longitude Course Direction KTS MPH feet Rate Location/Type
Sun 08:51:31 PM 44.9333 -92.9667 90° East 135 155 2,400  Level Minneapolis TRACON
Sun 08:52:21 PM 44.9472 -92.9297 62° Northeast 131 151 2,500 324 Climbing Minneapolis Center
Sun 08:53:22 PM 44.9403 -92.8933 105° East 100 115 3,000 244 Climbing Minneapolis Center
Sun 08:54:24 PM 44.9194 -92.8639 135° Southeast 104 120 3,000 387 Level Minneapolis Center
Sun 08:55:26 PM 44.9014 -92.8094 115° Southeast 125 144 3,800 823 Climbing Minneapolis Center
Sun 08:56:28 PM 44.8914 -92.7647 108° East 123 142 4,700 871 Climbing Minneapolis Center
Sun 08:57:30 PM 44.8733 -92.7247 122° Southeast 123 142 5,600 871 Climbing Minneapolis Center
Sun 08:58:32 PM 44.8506 -92.6894 132° Southeast 123 142 6,500 878 Climbing Minneapolis Center
Sun 08:59:33 PM 44.8258 -92.6589 139° Southeast 121 139 7,400 878 Climbing Minneapolis Center
Sun 09:00:35 PM 44.8014 -92.6250 135° Southeast 121 139 8,300 871 Climbing Minneapolis Center
Sun 09:01:37 PM 44.7767 -92.5914 136° Southeast 123 142 9,200 871 Climbing Minneapolis Center
Sun 09:02:39 PM 44.7458 -92.5506 137° Southeast 124 143 10,100 871 Climbing Minneapolis Center
Sun 09:03:41 PM 44.7192 -92.5150 137° Southeast 128 147 11,000 387 Climbing Minneapolis Center
Sun 09:04:43 PM 44.6892 -92.4661 131° Southeast 168 193 10,900  Descending Minneapolis Center
Sun 09:05:45 PM 44.6619 -92.4150 127° Southeast 167 192 11,000 97 Climbing Minneapolis Center
Sun 09:06:47 PM 44.6361 -92.3636 125° Southeast 164 189 11,100 48 Climbing Minneapolis Center
Sun 09:07:49 PM 44.6111 -92.3156 126° Southeast 156 180 11,100  Level Minneapolis Center
Sun 09:08:50 PM 44.5814 -92.2575 126° Southeast 155 178 11,100  Level Minneapolis Center
Sun 09:09:52 PM 44.5556 -92.2089 127° Southeast 155 178 11,100  Level Minneapolis Center
Sun 09:10:54 PM 44.5317 -92.1592 124° Southeast 155 178 11,100  Level Minneapolis Center
Sun 09:11:56 PM 44.5083 -92.1072 122° Southeast 155 178 11,100  Level Minneapolis Center
Sun 09:12:58 PM 44.4861 -92.0561 121° Southeast 155 178 11,100  Level Minneapolis Center
Sun 09:14:00 PM 44.4639 -92.0053 121° Southeast 155 178 11,100 -48 Level Minneapolis Center
Sun 09:15:02 PM 44.4419 -91.9519 120° Southeast 155 178 11,000  Descending Minneapolis Center
Sun 09:16:04 PM 44.4156 -91.8897 121° Southeast 156 180 11,100 49 Climbing Minneapolis Center
Sun 09:17:05 PM 44.3936 -91.8394 121° Southeast 155 178 11,100  Level Minneapolis Center
Sun 09:18:07 PM 44.3711 -91.7867 121° Southeast 155 178 11,100  Level Minneapolis Center
Sun 09:19:09 PM 44.3483 -91.7356 122° Southeast 156 180 11,100  Level Minneapolis Center
Sun 09:20:11 PM 44.3261 -91.6833 121° Southeast 156 180 11,100  Level Minneapolis Center
Sun 09:21:13 PM 44.3042 -91.6319 121° Southeast 156 180 11,100  Level Minneapolis Center
Sun 09:22:14 PM 44.2767 -91.5697 122° Southeast 156 180 11,100 -49 Level Minneapolis Center
Sun 09:23:16 PM 44.2531 -91.5200 124° Southeast 156 180 11,000  Descending Minneapolis Center
Sun 09:24:18 PM 44.2300 -91.4675 121° Southeast 156 180 11,100 49 Climbing Minneapolis Center
Sun 09:25:19 PM 44.2111 -91.4161 117° Southeast 156 180 11,100  Level Minneapolis Center
Sun 09:26:21 PM 44.1881 -91.3636 121° Southeast 155 178 11,100  Level Minneapolis Center
Sun 09:27:23 PM 44.1658 -91.3136 122° Southeast 156 180 11,100  Level Minneapolis Center
Sun 09:28:24 PM 44.1433 -91.2614 121° Southeast 156 180 11,100  Level Minneapolis Center
Sun 09:29:26 PM 44.1158 -91.2000 122° Southeast 156 180 11,100  Level Minneapolis Center
Sun 09:30:28 PM 44.0939 -91.1481 120° Southeast 156 180 11,100  Level Minneapolis Center
Sun 09:31:29 PM 44.0706 -91.0961 122° Southeast 156 180 11,100  Level Minneapolis Center
Sun 09:32:31 PM 44.0453 -91.0389 122° Southeast 157 181 11,100  Level Minneapolis Center
Sun 09:33:32 PM 44.0211 -90.9842 122° Southeast 158 182 11,100  Level Minneapolis Center
Sun 09:34:34 PM 43.9986 -90.9336 122° Southeast 158 182 11,100  Level Minneapolis Center
Sun 09:35:35 PM 43.9750 -90.8797 121° Southeast 158 182 11,100 -49 Level Minneapolis Center
Sun 09:36:37 PM 43.9500 -90.8247 122° Southeast 159 183 11,000 -48 Descending Minneapolis Center
Sun 09:37:39 PM 43.9261 -90.7692 121° Southeast 159 183 11,000  Level Minneapolis Center
Sun 09:38:40 PM 43.9019 -90.7156 122° Southeast 159 183 11,000  Level Minneapolis Center
Sun 09:39:42 PM 43.8797 -90.6658 122° Southeast 159 183 11,000  Level Minneapolis Center
Sun 09:40:43 PM 43.8558 -90.6114 121° Southeast 159 183 11,000  Level Minneapolis Center
Sun 09:41:45 PM 43.8319 -90.5567 121° Southeast 159 183 11,000  Level Minneapolis Center
Sun 09:42:46 PM 43.8069 -90.5056 124° Southeast 157 181 11,000  Level Minneapolis Center
Sun 09:43:48 PM 43.7856 -90.4558 121° Southeast 157 181 11,000  Level Minneapolis Center
Sun 09:44:49 PM 43.7622 -90.4033 122° Southeast 157 181 11,000  Level Minneapolis Center
Sun 09:45:51 PM 43.7383 -90.3508 122° Southeast 156 180 11,000  Level Minneapolis Center
Sun 09:46:52 PM 43.7147 -90.2983 122° Southeast 156 180 11,000  Level Minneapolis Center
Sun 09:47:53 PM 43.6922 -90.2500 123° Southeast 156 180 11,000  Level Minneapolis Center
Sun 09:48:55 PM 43.6683 -90.1972 122° Southeast 155 178 11,000  Level Minneapolis Center
Sun 09:49:56 PM 43.6450 -90.1453 122° Southeast 155 178 11,000  Level Minneapolis Center
Sun 09:50:58 PM 43.6208 -90.0931 123° Southeast 155 178 11,000  Level Minneapolis Center
Sun 09:51:50 PM 43.6039 -90.0556 122° Southeast 157 181 11,000  Level Chicago Center
Sun 09:52:52 PM 43.5803 -90.0056 123° Southeast 157 181 11,000  Level Chicago Center
Sun 09:53:53 PM 43.5569 -89.9564 123° Southeast 157 181 11,000  Level Chicago Center
Sun 09:54:55 PM 43.5339 -89.9061 122° Southeast 156 180 11,000  Level Chicago Center
Sun 09:55:56 PM 43.5083 -89.8461 120° Southeast 156 180 11,000 -146 Level Chicago Center
Sun 09:56:58 PM 43.4842 -89.7950 123° Southeast 156 180 10,700 -390 Descending Chicago Center
Sun 09:57:59 PM 43.4583 -89.7414 124° Southeast 163 188 10,200 -541 Descending Chicago Center
Sun 09:59:00 PM 43.4331 -89.6867 122° Southeast 167 192 9,600 -585 Descending Chicago Center
Sun 10:00:02 PM 43.4092 -89.6358 123° Southeast 166 191 9,000 -537 Descending Chicago Center
Sun 10:01:03 PM 43.3856 -89.5833 122° Southeast 165 190 8,500 -541 Descending Chicago Center
Sun 10:02:04 PM 43.3614 -89.5325 123° Southeast 164 189 7,900 -585 Descending Chicago Center
Sun 10:03:06 PM 43.3372 -89.4806 123° Southeast 164 189 7,300 -634 Descending Chicago Center
Sun 10:04:07 PM 43.3086 -89.4197 123° Southeast 163 188 6,600 -639 Descending Chicago Center
Sun 10:05:08 PM 43.2844 -89.3692 123° Southeast 162 186 6,000 -590 Descending Chicago Center
Sun 10:06:09 PM 43.2608 -89.3186 123° Southeast 162 186 5,400 -488 Descending Chicago Center
Sun 10:07:11 PM 43.2386 -89.2681 121° Southeast 161 185 5,000 -195 Descending Chicago Center
Sun 10:08:12 PM 43.2164 -89.2222 124° Southeast 153 176 5,000  Level Chicago Center
Sun 10:09:13 PM 43.1956 -89.1783 123° Southeast 146 168 5,000  Level Chicago Center
Sun 10:10:15 PM 43.1750 -89.1336 122° Southeast 144 166 5,000  Level Chicago Center
Sun 10:11:16 PM 43.1542 -89.0894 123° Southeast 142 163 5,000  Level Chicago Center
Sun 10:12:17 PM 43.1331 -89.0444 123° Southeast 142 163 5,000  Level Chicago Center
Sun 10:13:18 PM 43.1081 -88.9919 123° Southeast 142 163 5,000  Level Chicago Center
Sun 10:14:19 PM 43.0875 -88.9475 122° Southeast 141 162 5,000  Level Chicago Center
Sun 10:15:20 PM 43.0661 -88.9031 123° Southeast 141 162 5,000  Level Chicago Center
Sun 10:16:22 PM 43.0444 -88.8586 124° Southeast 141 162 5,000  Level Chicago Center
Sun 10:17:23 PM 43.0239 -88.8142 122° Southeast 141 162 5,000  Level Chicago Center
Sun 10:18:24 PM 43.0031 -88.7703 123° Southeast 141 162 5,000  Level Chicago Center
Sun 10:19:25 PM 42.9817 -88.7264 124° Southeast 141 162 5,000  Level Chicago Center
Sun 10:20:26 PM 42.9619 -88.6828 122° Southeast 141 162 5,000  Level Chicago Center
Sun 10:21:27 PM 42.9406 -88.6392 124° Southeast 141 162 5,000  Level Chicago Center
Sun 10:22:28 PM 42.9150 -88.5864 123° Southeast 141 162 5,000 -195 Level Chicago Center
Sun 10:23:30 PM 42.8917 -88.5408 125° Southeast 141 162 4,600 -390 Descending Chicago Center
Sun 10:24:31 PM 42.8692 -88.4939 123° Southeast 144 166 4,200 -295 Descending Chicago Center
Sun 10:25:32 PM 42.8458 -88.4469 124° Southeast 145 167 4,000 -98 Descending Chicago Center
Sun 10:26:33 PM 42.8256 -88.4011 121° Southeast 145 167 4,000 -49 Level Chicago Center
Sun 10:27:34 PM 42.8044 -88.3594 125° Southeast 143 165 3,900 -295 Descending Chicago Center
Sun 10:28:35 PM 42.7819 -88.3131 123° Southeast 143 165 3,400 -443 Descending Chicago Center
Sun 10:29:36 PM 42.7583 -88.2650 124° Southeast 146 168 3,000 -195 Descending Chicago Center
Sun 10:30:38 PM 42.7367 -88.2233 125° Southeast 145 167 3,000  Level Chicago Center
Sun 10:31:39 PM 42.7169 -88.1811 122° Southeast 139 160 3,000 -49 Level Chicago Center
Sun 10:32:40 PM 42.6944 -88.1300 121° Southeast 134 154 2,900 -148 Descending Chicago Center
Sun 10:33:41 PM 42.6781 -88.0797 114° Southeast 136 157 2,700 -197 Descending Chicago Center
Sun 10:34:42 PM 42.6642 -88.0292 110° East 139 160 2,500 -246 Descending Chicago Center
Sun 10:35:43 PM 42.6528 -87.9836 109° East 138 159 2,200 -393 Descending Chicago Center
Sun 10:36:44 PM 42.6353 -87.9533 128° Southeast 121 139 1,700 -492 Descending Chicago Center
Sun 10:39:00 PM 42.5957 -87.9278 124° Southeast  Level Estimated

Login

Don't have an account? Register now (free) for customized features, flight alerts, and more!